»·PEaware :: N522PM KYKM-KPDX

N522PM :: KYKM-KPDX

FLIGHT INFORMATION

Flight Status: Arrived
Operator: Privately registered:
United States
More flights under this callsign
Pilot: Bruce B. (6887)
Aircraft: Unknown
(LEG2)
More flights by this aircraft type
Origin: KYKM Yakima Air Term/Mcallister
United States
Destination: KPDX Portland Intl
United States
More flights between these airports :: More routes between these airports
Route: +
File this flight plan on PilotEdge
Remarks:
Altitude:
(Current/Filed)
8,500ft
Speed:
(Current/Filed)
230kts
Departed: 09-Apr-20 05:55 PM
Arrived: 09-Apr-20 06:31 PM
Distance/Time
Traveled:
103nm/0:36
Distance/Time
To Go:
Arrived

Flight Plot

Page will automatically refresh every two minutes.


Map Options




Map Legend


Flown Route
Filed Route
Departure Airport
Arrival Airport
Navaid (VOR, NDB)
Fix

Horizontal Profiles

Position Reports

Time Latitude Longitude Heading Altitude Ground
Speed
09-Apr-20 17:42 46.569993 -120.537703 268 1058ft 0kts
09-Apr-20 17:43 46.569993 -120.537703 268 1058ft 0kts
09-Apr-20 17:44 46.569993 -120.537703 268 1058ft 0kts
09-Apr-20 17:45 46.569993 -120.537705 268 1058ft 0kts
09-Apr-20 17:46 46.569993 -120.537706 268 1058ft 0kts
09-Apr-20 17:47 46.569993 -120.537707 268 1058ft 0kts
09-Apr-20 17:48 46.569993 -120.537708 268 1058ft 0kts
09-Apr-20 17:49 46.569993 -120.537709 268 1058ft 0kts
09-Apr-20 17:50 46.569993 -120.537710 268 1058ft 0kts
09-Apr-20 17:51 46.569736 -120.537489 159 1058ft 6kts
09-Apr-20 17:52 46.570194 -120.534605 97 1058ft 8kts
09-Apr-20 17:53 46.570168 -120.534507 123 1058ft 0kts
09-Apr-20 17:54 46.566210 -120.542448 235 1062ft 101kts
09-Apr-20 17:55 46.552828 -120.587817 244 2468ft 135kts
09-Apr-20 17:56 46.529200 -120.629091 215 4129ft 138kts
09-Apr-20 17:57 46.498732 -120.664621 219 5650ft 148kts
09-Apr-20 17:58 46.465825 -120.704501 222 7079ft 160kts
09-Apr-20 17:59 46.429414 -120.749046 222 8195ft 182kts
09-Apr-20 18:00 46.387342 -120.800388 222 8512ft 211kts
09-Apr-20 18:01 46.340700 -120.857040 222 8507ft 224kts
09-Apr-20 18:02 46.292220 -120.915767 222 8512ft 233kts
09-Apr-20 18:03 46.252206 -120.987387 242 8492ft 230kts
09-Apr-20 18:04 46.219925 -121.067305 241 8491ft 233kts
09-Apr-20 18:05 46.186548 -121.147260 239 8490ft 231kts
09-Apr-20 18:06 46.152073 -121.224847 239 8493ft 232kts
09-Apr-20 18:07 46.118219 -121.299630 238 8493ft 233kts
09-Apr-20 18:08 46.082610 -121.376901 237 8484ft 228kts
09-Apr-20 18:09 46.047174 -121.451438 237 8485ft 223kts
09-Apr-20 18:10 46.011995 -121.524929 236 8487ft 224kts
09-Apr-20 18:11 45.976384 -121.599402 236 8489ft 230kts
09-Apr-20 18:12 45.939298 -121.674841 235 8478ft 234kts
09-Apr-20 18:13 45.901515 -121.750036 235 8474ft 228kts
09-Apr-20 18:14 45.864862 -121.823109 235 8477ft 224kts
09-Apr-20 18:15 45.828658 -121.895034 235 8383ft 214kts
09-Apr-20 18:16 45.793358 -121.964401 235 7305ft 212kts
09-Apr-20 18:17 45.759910 -122.029227 235 6504ft 186kts
09-Apr-20 18:18 45.731701 -122.082839 234 6477ft 157kts
09-Apr-20 18:19 45.706581 -122.129869 234 6480ft 140kts
09-Apr-20 18:20 45.681531 -122.176014 234 6085ft 164kts
09-Apr-20 18:21 45.653805 -122.229342 239 5403ft 155kts
09-Apr-20 18:22 45.632241 -122.278287 240 4708ft 136kts
09-Apr-20 18:23 45.613517 -122.321481 241 4073ft 116kts
09-Apr-20 18:24 45.597366 -122.364036 245 3052ft 122kts
09-Apr-20 18:25 45.583535 -122.404549 246 2427ft 109kts
09-Apr-20 18:26 45.570487 -122.443669 248 1773ft 107kts
09-Apr-20 18:27 45.559646 -122.482268 259 1369ft 103kts
09-Apr-20 18:28 45.564860 -122.520693 301 803ft 94kts
09-Apr-20 18:29 45.577331 -122.550984 298 306ft 85kts
09-Apr-20 18:30 45.586722 -122.574942 294 33ft 22kts
09-Apr-20 18:31 45.585412 -122.577455 230 33ft 8kts
09-Apr-20 18:32 45.585109 -122.578172 290 33ft 0kts
09-Apr-20 18:33 45.585109 -122.578172 290 33ft 0kts
09-Apr-20 18:34 45.585109 -122.578172 290 33ft 0kts

Navigation Log

Ident Type
Flight plan parsing failed, navigation log unavailable